Time;durP1;ratioP1;P1;durP2;ratioP2;P2;SDS_P1;SDS_P2;PMS_P1;PMS_P2;Temp;Humidity;BMP_temperature;BMP_pressure;BME280_temperature;BME280_humidity;BME280_pressure;Samples;Min_cycle;Max_cycle;Signal;HPM_P1;HPM_P2
2023/08/10 00:01:42;;;;;;;1.42;1.00;;;17.80;99.90;;;;;;5070254;28;20211;-66
2023/08/10 00:04:09;;;;;;;2.53;1.35;;;17.80;99.90;;;;;;5067622;28;20380;-67
2023/08/10 00:06:36;;;;;;;1.27;1.00;;;17.70;99.90;;;;;;5052180;28;20264;-66
2023/08/10 00:09:04;;;;;;;1.52;1.10;;;17.70;99.90;;;;;;5068943;28;20245;-66
2023/08/10 00:11:31;;;;;;;1.42;1.08;;;17.60;99.90;;;;;;5065918;28;20568;-66
2023/08/10 00:13:59;;;;;;;2.85;1.42;;;17.70;99.90;;;;;;5069758;28;20232;-66
2023/08/10 00:16:26;;;;;;;2.33;1.00;;;17.60;99.90;;;;;;5069566;28;20612;-66
2023/08/10 00:18:54;;;;;;;1.02;0.90;;;17.60;99.90;;;;;;5066532;28;20193;-66
2023/08/10 00:21:21;;;;;;;2.42;1.20;;;17.60;99.90;;;;;;5069762;28;20602;-66
2023/08/10 00:23:48;;;;;;;1.48;1.20;;;17.60;99.90;;;;;;5070409;28;20224;-66
2023/08/10 00:26:15;;;;;;;1.40;1.13;;;17.60;99.90;;;;;;5069300;28;20262;-66
2023/08/10 00:28:42;;;;;;;1.25;1.10;;;17.60;99.90;;;;;;5049459;28;20208;-66
2023/08/10 00:31:11;;;;;;;2.25;1.13;;;17.50;99.90;;;;;;5062732;28;20193;-67
2023/08/10 00:33:38;;;;;;;2.63;1.20;;;17.50;99.90;;;;;;5066001;28;20228;-66
2023/08/10 00:36:07;;;;;;;1.73;1.08;;;17.50;99.90;;;;;;5051026;28;20221;-66
2023/08/10 00:38:34;;;;;;;1.73;1.00;;;17.50;99.90;;;;;;5067428;28;20188;-66
2023/08/10 00:41:02;;;;;;;2.17;1.20;;;17.50;99.90;;;;;;5049228;28;20222;-66
2023/08/10 00:43:29;;;;;;;1.47;1.07;;;17.50;99.90;;;;;;5069173;28;20204;-67
2023/08/10 00:45:57;;;;;;;3.22;1.30;;;17.40;99.90;;;;;;5068559;28;20196;-67
2023/08/10 00:48:26;;;;;;;1.52;1.02;;;17.40;99.90;;;;;;5066939;28;20238;-67
2023/08/10 00:50:54;;;;;;;0.80;0.73;;;17.40;99.90;;;;;;5069466;28;20273;-67
2023/08/10 00:53:22;;;;;;;1.38;1.00;;;17.30;99.90;;;;;;5069820;28;20189;-66
2023/08/10 00:55:53;;;;;;;1.10;1.00;;;17.30;99.90;;;;;;5069030;28;20217;-66
2023/08/10 00:58:21;;;;;;;4.20;1.42;;;17.30;99.90;;;;;;5067814;28;20189;-67
2023/08/10 01:00:49;;;;;;;1.53;1.23;;;17.30;99.90;;;;;;5066422;28;20265;-67
2023/08/10 01:03:17;;;;;;;1.98;1.50;;;17.30;99.90;;;;;;5067418;28;20189;-65
2023/08/10 01:05:53;;;;;;;1.98;1.55;;;17.30;99.90;;;;;;5068851;28;20258;-67
2023/08/10 01:08:32;;;;;;;3.07;1.60;;;17.30;99.90;;;;;;5068114;28;20194;-67
2023/08/10 01:11:13;;;;;;;2.40;1.40;;;17.30;99.90;;;;;;5059444;28;20219;-66
2023/08/10 01:13:48;;;;;;;3.47;1.60;;;17.30;99.90;;;;;;5068734;28;20560;-66
2023/08/10 01:16:17;;;;;;;1.55;1.40;;;17.30;99.90;;;;;;5069350;28;20296;-66
2023/08/10 01:18:45;;;;;;;1.30;1.20;;;17.30;99.90;;;;;;5064673;28;20196;-66
2023/08/10 01:21:33;;;;;;;1.55;1.00;;;17.30;99.90;;;;;;5050944;28;20221;-67
2023/08/10 01:24:08;;;;;;;0.98;0.93;;;17.30;99.90;;;;;;5051198;28;20666;-66
2023/08/10 01:26:38;;;;;;;1.42;1.10;;;17.20;99.90;;;;;;5069321;28;20200;-67
2023/08/10 01:29:05;;;;;;;1.77;1.10;;;17.20;99.90;;;;;;5049571;28;20275;-68
2023/08/10 01:31:33;;;;;;;1.67;0.97;;;17.10;99.90;;;;;;5062730;28;20208;-67
2023/08/10 01:34:00;;;;;;;1.10;0.95;;;17.20;99.90;;;;;;5057149;28;20227;-66
2023/08/10 01:36:27;;;;;;;1.07;1.03;;;17.10;99.90;;;;;;5051559;28;20236;-67
2023/08/10 01:38:54;;;;;;;2.13;1.03;;;17.10;99.90;;;;;;5050158;28;20207;-66
2023/08/10 01:41:22;;;;;;;1.10;1.00;;;17.10;99.90;;;;;;5050676;28;20670;-66
2023/08/10 01:43:50;;;;;;;1.70;0.98;;;17.10;99.90;;;;;;5051651;28;20208;-66
2023/08/10 01:46:21;;;;;;;2.40;1.00;;;17.10;99.90;;;;;;5070552;28;20219;-66
2023/08/10 01:48:52;;;;;;;2.00;1.10;;;17.10;99.90;;;;;;5064310;28;20660;-66
2023/08/10 01:51:23;;;;;;;1.47;0.90;;;17.10;99.90;;;;;;5067595;28;20314;-66
2023/08/10 01:53:53;;;;;;;1.00;0.82;;;17.10;99.90;;;;;;5060060;28;20200;-66
2023/08/10 01:56:20;;;;;;;2.00;1.10;;;17.10;99.90;;;;;;5066718;28;20223;-66
2023/08/10 01:58:48;;;;;;;1.23;1.00;;;17.10;99.90;;;;;;5049235;28;20195;-67
2023/08/10 02:01:16;;;;;;;1.00;0.90;;;17.10;99.90;;;;;;5070545;28;20204;-66
2023/08/10 02:03:43;;;;;;;1.30;0.93;;;17.10;99.90;;;;;;5069304;28;20199;-66
2023/08/10 02:06:10;;;;;;;2.80;1.00;;;17.00;99.90;;;;;;5054996;28;20685;-67
2023/08/10 02:08:37;;;;;;;1.25;1.15;;;17.00;99.90;;;;;;5071141;28;20306;-66
2023/08/10 02:11:05;;;;;;;0.70;0.68;;;17.00;99.90;;;;;;5054281;28;20211;-65
2023/08/10 02:13:32;;;;;;;2.15;1.10;;;17.00;99.90;;;;;;5070925;28;20278;-67
2023/08/10 02:15:59;;;;;;;1.60;1.07;;;17.00;99.90;;;;;;5072085;28;20255;-68
2023/08/10 02:18:28;;;;;;;3.17;1.50;;;17.00;99.90;;;;;;5068902;28;20194;-67
2023/08/10 02:20:55;;;;;;;1.10;0.90;;;17.00;99.90;;;;;;5072010;28;20254;-67
2023/08/10 02:23:22;;;;;;;0.70;0.70;;;17.00;99.90;;;;;;5070254;28;20199;-67
2023/08/10 02:25:49;;;;;;;1.50;0.98;;;17.10;99.90;;;;;;5053678;28;20199;-66
2023/08/10 02:28:16;;;;;;;1.67;0.88;;;17.10;99.90;;;;;;5050033;28;20421;-67
2023/08/10 02:30:43;;;;;;;0.87;0.80;;;17.00;99.90;;;;;;5068503;28;20220;-66
2023/08/10 02:33:10;;;;;;;1.30;1.20;;;17.00;99.90;;;;;;5052446;28;20211;-66
2023/08/10 02:35:38;;;;;;;1.10;0.95;;;17.00;99.90;;;;;;5071236;28;20655;-66
2023/08/10 02:38:06;;;;;;;0.90;0.90;;;16.90;99.90;;;;;;5052455;28;20230;-66
2023/08/10 02:40:33;;;;;;;1.10;0.97;;;16.90;99.90;;;;;;5070847;28;20204;-66
2023/08/10 02:43:00;;;;;;;1.67;0.90;;;16.90;99.90;;;;;;5052933;28;20207;-66
2023/08/10 02:45:27;;;;;;;1.00;1.00;;;16.90;99.90;;;;;;5062687;28;20208;-67
2023/08/10 02:47:54;;;;;;;1.43;1.00;;;16.90;99.90;;;;;;5070337;28;20218;-67
2023/08/10 02:50:21;;;;;;;1.13;0.80;;;16.90;99.90;;;;;;5069371;28;20207;-67
2023/08/10 02:52:50;;;;;;;1.98;0.73;;;16.90;99.90;;;;;;5071415;28;20241;-67
2023/08/10 02:55:18;;;;;;;0.75;0.75;;;17.00;99.90;;;;;;5071869;28;20659;-67
2023/08/10 02:57:45;;;;;;;0.60;0.60;;;16.90;99.90;;;;;;5047679;28;20198;-67
2023/08/10 03:00:13;;;;;;;0.93;0.82;;;16.90;99.90;;;;;;5068862;28;20188;-66
2023/08/10 03:02:40;;;;;;;0.82;0.63;;;16.90;99.90;;;;;;5069587;28;20663;-66
2023/08/10 03:05:11;;;;;;;0.90;0.80;;;17.00;99.90;;;;;;5049257;28;20279;-67
2023/08/10 03:07:38;;;;;;;2.40;1.00;;;17.00;99.90;;;;;;5049869;28;20640;-65
2023/08/10 03:10:08;;;;;;;0.80;0.70;;;17.00;99.90;;;;;;5048160;28;20199;-66
2023/08/10 03:12:35;;;;;;;0.90;0.70;;;17.10;99.90;;;;;;5049202;28;20207;-66
2023/08/10 03:15:04;;;;;;;0.88;0.60;;;17.10;99.90;;;;;;5050603;28;20215;-66
2023/08/10 03:17:34;;;;;;;0.60;0.60;;;17.10;99.90;;;;;;5049044;28;20243;-66
2023/08/10 03:20:06;;;;;;;0.70;0.70;;;17.10;99.90;;;;;;5047870;28;20197;-67
2023/08/10 03:22:34;;;;;;;1.13;0.70;;;17.20;99.90;;;;;;5038310;28;20302;-67
2023/08/10 03:25:01;;;;;;;0.60;0.57;;;17.20;99.90;;;;;;5049741;28;20270;-67
2023/08/10 03:27:30;;;;;;;1.23;0.97;;;17.20;99.90;;;;;;5048475;28;20201;-66
2023/08/10 03:29:57;;;;;;;6.10;1.00;;;17.20;99.90;;;;;;5047297;28;20224;-67
2023/08/10 03:32:25;;;;;;;0.93;0.80;;;17.30;99.90;;;;;;5048492;28;20202;-67
2023/08/10 03:34:52;;;;;;;1.35;0.80;;;17.30;99.90;;;;;;5048949;28;20228;-67
2023/08/10 03:37:19;;;;;;;1.85;0.98;;;17.30;99.90;;;;;;5049144;28;20350;-67
2023/08/10 03:39:46;;;;;;;1.90;1.00;;;17.30;99.90;;;;;;5049266;28;20619;-67
2023/08/10 03:42:13;;;;;;;1.77;0.90;;;17.30;99.90;;;;;;5049129;28;20213;-67
2023/08/10 03:44:42;;;;;;;1.13;0.93;;;17.30;99.90;;;;;;5050368;28;20208;-67
2023/08/10 03:47:09;;;;;;;1.15;1.05;;;17.30;99.90;;;;;;5047951;28;20745;-67
2023/08/10 03:49:36;;;;;;;0.77;0.70;;;17.20;99.90;;;;;;5046126;28;20224;-66
2023/08/10 03:52:03;;;;;;;1.13;0.80;;;17.20;99.90;;;;;;5048006;28;20582;-66
2023/08/10 03:54:31;;;;;;;0.57;0.57;;;17.20;99.90;;;;;;5050460;28;20353;-66
2023/08/10 03:56:58;;;;;;;0.90;0.70;;;17.20;99.90;;;;;;5048123;28;20225;-66
2023/08/10 03:59:26;;;;;;;0.80;0.60;;;17.20;99.90;;;;;;5047082;28;20208;-67
2023/08/10 04:01:55;;;;;;;1.27;0.88;;;17.20;99.90;;;;;;5050000;28;20632;-67
2023/08/10 04:04:23;;;;;;;2.65;0.90;;;17.20;99.90;;;;;;5047401;28;20236;-66
2023/08/10 04:06:50;;;;;;;2.27;1.00;;;17.30;99.90;;;;;;5049311;28;20519;-66
2023/08/10 04:09:17;;;;;;;1.00;0.80;;;17.30;99.90;;;;;;5045972;28;20208;-66
2023/08/10 04:11:44;;;;;;;1.30;0.73;;;17.30;99.90;;;;;;5048719;28;20692;-66
2023/08/10 04:14:11;;;;;;;2.20;1.00;;;17.30;99.90;;;;;;5049686;28;20199;-66
2023/08/10 04:16:38;;;;;;;1.20;0.90;;;17.40;99.90;;;;;;5050271;28;20523;-67
2023/08/10 04:19:06;;;;;;;2.15;0.95;;;17.40;99.90;;;;;;5046789;28;20576;-67
2023/08/10 04:21:34;;;;;;;1.17;1.10;;;17.40;99.90;;;;;;5039522;28;20247;-66
2023/08/10 04:24:01;;;;;;;1.35;1.10;;;17.40;99.90;;;;;;5045276;28;20200;-66
2023/08/10 04:26:28;;;;;;;1.10;0.90;;;17.40;99.90;;;;;;5050037;28;20197;-66
2023/08/10 04:28:55;;;;;;;1.08;0.82;;;17.40;99.90;;;;;;5047591;28;20723;-66
2023/08/10 04:31:22;;;;;;;2.05;1.10;;;17.40;99.90;;;;;;5047620;28;20250;-66
2023/08/10 04:33:49;;;;;;;1.25;1.05;;;17.40;99.90;;;;;;5048617;28;20564;-66
2023/08/10 04:36:17;;;;;;;1.67;0.98;;;17.40;99.90;;;;;;5048844;28;20211;-68
2023/08/10 04:38:44;;;;;;;1.25;0.70;;;17.40;99.90;;;;;;5048071;28;20289;-66
2023/08/10 04:41:11;;;;;;;0.93;0.60;;;17.40;99.90;;;;;;5049870;28;20612;-66
2023/08/10 04:43:38;;;;;;;0.90;0.88;;;17.40;99.90;;;;;;5051368;28;20201;-66
2023/08/10 04:46:05;;;;;;;2.60;1.20;;;17.40;99.90;;;;;;5052753;28;20214;-66
2023/08/10 04:48:32;;;;;;;2.97;0.90;;;17.40;99.90;;;;;;5046420;28;20275;-66
2023/08/10 04:50:59;;;;;;;0.70;0.70;;;17.50;99.90;;;;;;5050156;28;20196;-67
2023/08/10 04:53:28;;;;;;;1.45;0.90;;;17.50;99.90;;;;;;5049951;28;20240;-67
2023/08/10 04:55:55;;;;;;;1.13;0.90;;;17.50;99.90;;;;;;5050140;28;20712;-67
2023/08/10 04:58:22;;;;;;;1.92;1.00;;;17.50;99.90;;;;;;5046743;28;20198;-66
2023/08/10 05:00:52;;;;;;;1.83;1.05;;;17.50;99.90;;;;;;5048440;28;20224;-66
2023/08/10 05:03:20;;;;;;;1.23;1.00;;;17.50;99.90;;;;;;5046596;28;20220;-67
2023/08/10 05:05:47;;;;;;;1.65;0.80;;;17.50;99.90;;;;;;5070371;28;20228;-67
2023/08/10 05:08:14;;;;;;;1.20;1.05;;;17.60;99.90;;;;;;5068387;28;20208;-67
2023/08/10 05:10:45;;;;;;;2.63;0.90;;;17.60;99.90;;;;;;5067504;28;20596;-67
2023/08/10 05:13:12;;;;;;;1.70;0.80;;;17.60;99.90;;;;;;5068750;28;20193;-66
2023/08/10 05:15:40;;;;;;;1.55;0.70;;;17.60;99.90;;;;;;5069418;28;20204;-66
2023/08/10 05:18:08;;;;;;;1.35;0.77;;;17.60;99.90;;;;;;5066932;28;20560;-66
2023/08/10 05:20:35;;;;;;;1.27;0.90;;;17.60;99.90;;;;;;5064310;28;20200;-67
2023/08/10 05:23:02;;;;;;;0.90;0.90;;;17.60;99.90;;;;;;5068869;28;20196;-66
2023/08/10 05:25:29;;;;;;;1.73;0.80;;;17.60;99.90;;;;;;5069604;28;20738;-66
2023/08/10 05:27:57;;;;;;;1.90;1.08;;;17.60;99.90;;;;;;5067486;28;20209;-67
2023/08/10 05:30:25;;;;;;;1.52;1.17;;;17.60;99.90;;;;;;5061696;28;20933;-66
2023/08/10 05:32:52;;;;;;;3.30;1.40;;;17.70;99.90;;;;;;5070037;28;20757;-65
2023/08/10 05:35:20;;;;;;;1.27;1.13;;;17.70;99.90;;;;;;5054203;28;20683;-65
2023/08/10 05:37:48;;;;;;;1.87;1.40;;;17.70;99.90;;;;;;5072873;28;20277;-66
2023/08/10 05:40:15;;;;;;;1.55;1.25;;;17.80;99.90;;;;;;5072837;28;20198;-66
2023/08/10 05:42:43;;;;;;;2.20;1.10;;;17.80;99.90;;;;;;5053868;28;20204;-67
2023/08/10 05:45:15;;;;;;;3.45;1.23;;;17.80;99.90;;;;;;5071486;28;20564;-65
2023/08/10 05:47:43;;;;;;;1.83;1.30;;;17.90;99.90;;;;;;5053809;28;20200;-67
2023/08/10 05:50:10;;;;;;;2.00;1.20;;;17.90;99.90;;;;;;5072795;28;20285;-66
2023/08/10 05:52:37;;;;;;;1.25;1.00;;;17.90;99.90;;;;;;5071931;28;20223;-67
2023/08/10 05:55:05;;;;;;;2.42;0.93;;;17.90;99.90;;;;;;5041209;28;20202;-67
2023/08/10 05:57:32;;;;;;;1.33;0.90;;;17.90;99.90;;;;;;5071765;28;20209;-67
2023/08/10 06:00:00;;;;;;;0.85;0.80;;;18.00;99.90;;;;;;5069285;28;20285;-66
2023/08/10 06:02:28;;;;;;;1.38;0.73;;;18.00;99.90;;;;;;5073365;28;20204;-67
2023/08/10 06:04:56;;;;;;;1.70;0.95;;;18.00;99.90;;;;;;5072472;28;20235;-67
2023/08/10 06:07:23;;;;;;;1.80;1.15;;;18.00;99.90;;;;;;5064349;28;20193;-66
2023/08/10 06:09:50;;;;;;;2.73;1.20;;;18.00;99.90;;;;;;5048963;28;20245;-66
2023/08/10 06:12:18;;;;;;;0.98;0.98;;;18.00;99.90;;;;;;5072559;28;20513;-66
2023/08/10 06:14:45;;;;;;;1.63;0.88;;;18.00;99.90;;;;;;5053341;28;20205;-67
2023/08/10 06:17:12;;;;;;;1.75;0.82;;;18.00;99.90;;;;;;5070873;28;20212;-66
2023/08/10 06:19:41;;;;;;;2.17;1.15;;;18.00;99.90;;;;;;5068141;28;20941;-66
2023/08/10 06:22:08;;;;;;;1.50;0.98;;;18.10;99.90;;;;;;5063776;28;20181;-65
2023/08/10 06:24:37;;;;;;;3.25;1.33;;;18.10;99.90;;;;;;5069329;28;20335;-66
2023/08/10 06:27:06;;;;;;;4.45;1.02;;;18.10;99.90;;;;;;5068484;28;20189;-66
2023/08/10 06:29:33;;;;;;;5.30;1.38;;;18.20;99.90;;;;;;5049387;28;20921;-66
2023/08/10 06:32:00;;;;;;;2.13;1.38;;;18.20;99.90;;;;;;5069088;28;20204;-66
2023/08/10 06:34:27;;;;;;;4.22;1.30;;;18.20;99.90;;;;;;5068901;28;20211;-67
2023/08/10 06:36:56;;;;;;;2.90;1.40;;;18.30;99.90;;;;;;5052727;28;20731;-64
2023/08/10 06:39:23;;;;;;;1.33;0.95;;;18.30;99.90;;;;;;5066406;28;20210;-67
2023/08/10 06:41:50;;;;;;;2.17;1.48;;;18.30;99.90;;;;;;5068980;28;20302;-66
2023/08/10 06:44:21;;;;;;;3.47;1.27;;;18.20;99.90;;;;;;5051338;28;20308;-66
2023/08/10 06:46:48;;;;;;;2.97;1.20;;;18.20;99.90;;;;;;5070231;28;20189;-64
2023/08/10 06:49:16;;;;;;;5.57;1.50;;;18.20;99.90;;;;;;5066118;28;20209;-63
2023/08/10 06:51:44;;;;;;;1.52;1.10;;;18.20;99.90;;;;;;5065647;28;20281;-64
2023/08/10 06:54:12;;;;;;;2.83;1.33;;;18.20;99.90;;;;;;5069918;28;20199;-64
2023/08/10 06:56:39;;;;;;;3.42;1.23;;;18.20;99.90;;;;;;5069044;28;20235;-64
2023/08/10 06:59:07;;;;;;;3.07;1.07;;;18.20;99.90;;;;;;5065809;28;20204;-63
2023/08/10 07:01:34;;;;;;;2.20;1.00;;;18.20;99.90;;;;;;5050132;28;20208;-62
2023/08/10 07:04:01;;;;;;;3.55;1.08;;;18.20;99.90;;;;;;5047823;28;20216;-64
2023/08/10 07:06:29;;;;;;;7.43;1.00;;;18.30;99.90;;;;;;5050591;28;20282;-64
2023/08/10 07:08:56;;;;;;;2.50;1.08;;;18.30;99.90;;;;;;5069004;28;20568;-63
2023/08/10 07:11:27;;;;;;;0.95;0.95;;;18.30;99.90;;;;;;5067395;28;20281;-63
2023/08/10 07:13:54;;;;;;;2.10;1.08;;;18.30;99.90;;;;;;5069514;28;20197;-63
2023/08/10 07:16:21;;;;;;;4.88;1.42;;;18.30;99.90;;;;;;5068546;28;20221;-63
2023/08/10 07:18:48;;;;;;;1.30;0.98;;;18.30;99.90;;;;;;5068939;28;20239;-63
2023/08/10 07:21:15;;;;;;;2.63;1.50;;;18.30;99.90;;;;;;5062024;28;20204;-63
2023/08/10 07:23:42;;;;;;;3.53;1.25;;;18.30;99.90;;;;;;5069593;28;20201;-62
2023/08/10 07:26:10;;;;;;;2.83;1.40;;;18.30;99.90;;;;;;5069216;28;20523;-64
2023/08/10 07:28:38;;;;;;;2.33;1.10;;;18.40;99.90;;;;;;5060256;28;20193;-64
2023/08/10 07:31:05;;;;;;;2.85;1.20;;;18.40;99.90;;;;;;5060161;28;20615;-63
2023/08/10 07:33:32;;;;;;;4.15;1.15;;;18.40;99.90;;;;;;5067230;28;20284;-63
2023/08/10 07:35:59;;;;;;;7.72;1.58;;;18.40;99.90;;;;;;5067934;28;20207;-63
2023/08/10 07:38:26;;;;;;;2.15;1.27;;;18.40;99.90;;;;;;5065552;28;20709;-63
2023/08/10 07:40:54;;;;;;;1.85;1.00;;;18.40;99.90;;;;;;5065978;28;20275;-63
2023/08/10 07:43:21;;;;;;;1.88;1.10;;;18.50;99.90;;;;;;5052504;28;20680;-63
2023/08/10 07:45:49;;;;;;;3.58;1.20;;;18.50;99.90;;;;;;5066509;28;20602;-63
2023/08/10 07:48:16;;;;;;;3.33;1.10;;;18.50;99.90;;;;;;5066246;28;20264;-64
2023/08/10 07:50:43;;;;;;;2.78;1.20;;;18.60;99.90;;;;;;5050132;28;20301;-64
2023/08/10 07:53:10;;;;;;;2.97;1.25;;;18.60;99.90;;;;;;5049371;28;20219;-64
2023/08/10 07:55:38;;;;;;;1.40;1.00;;;18.60;99.90;;;;;;5067761;28;20197;-63
2023/08/10 07:58:05;;;;;;;1.95;1.23;;;18.70;99.90;;;;;;5068219;28;20220;-62
2023/08/10 08:00:33;;;;;;;1.15;0.82;;;18.80;99.90;;;;;;5068243;28;20201;-63
2023/08/10 08:03:01;;;;;;;2.28;1.20;;;18.90;99.90;;;;;;5067048;28;20274;-63
2023/08/10 08:05:29;;;;;;;2.35;1.30;;;19.10;99.90;;;;;;5061835;28;20720;-62
2023/08/10 08:07:56;;;;;;;4.43;1.25;;;19.10;99.90;;;;;;5070918;28;20181;-62
2023/08/10 08:10:23;;;;;;;2.10;1.27;;;19.20;99.90;;;;;;5064346;28;20193;-62
2023/08/10 08:12:50;;;;;;;2.05;1.15;;;19.20;99.90;;;;;;5068263;28;20197;-62
2023/08/10 08:15:17;;;;;;;5.65;1.40;;;19.20;99.90;;;;;;5068126;28;20186;-63
2023/08/10 08:18:21;;;;;;;1.67;1.30;;;19.20;99.90;;;;;;5065053;28;20205;-63
2023/08/10 08:20:50;;;;;;;2.63;1.23;;;19.20;99.90;;;;;;5045767;28;20672;-64
2023/08/10 08:23:17;;;;;;;1.10;1.00;;;19.10;99.90;;;;;;5059414;28;20603;-63
2023/08/10 08:25:44;;;;;;;2.72;1.25;;;19.10;99.90;;;;;;5048193;28;20193;-63
2023/08/10 08:28:11;;;;;;;1.88;1.05;;;19.00;99.90;;;;;;5061869;28;20198;-62
2023/08/10 08:30:38;;;;;;;2.92;1.17;;;19.00;99.90;;;;;;5067755;28;20204;-62
2023/08/10 08:33:05;;;;;;;3.45;1.40;;;18.90;99.90;;;;;;5047484;28;20221;-62
2023/08/10 08:35:32;;;;;;;1.75;0.85;;;19.00;99.90;;;;;;5068459;28;20197;-63
2023/08/10 08:38:01;;;;;;;4.13;1.50;;;18.90;99.90;;;;;;5065800;28;20217;-63
2023/08/10 08:40:29;;;;;;;3.45;1.30;;;19.00;99.90;;;;;;5067484;28;20223;-64
2023/08/10 08:42:56;;;;;;;2.53;1.00;;;19.00;99.90;;;;;;5037108;28;20296;-63
2023/08/10 08:45:23;;;;;;;1.85;1.15;;;19.00;99.90;;;;;;5065550;28;20278;-63
2023/08/10 08:47:51;;;;;;;1.73;1.00;;;19.00;99.90;;;;;;5064131;28;20231;-63
2023/08/10 08:50:22;;;;;;;3.75;1.48;;;19.00;99.90;;;;;;5042084;28;20296;-62
2023/08/10 08:52:51;;;;;;;1.65;1.25;;;19.00;99.90;;;;;;5065864;28;20193;-62
2023/08/10 08:55:20;;;;;;;2.85;1.00;;;19.10;99.90;;;;;;5067506;28;20676;-62
2023/08/10 08:57:47;;;;;;;2.70;1.30;;;19.10;99.80;;;;;;5067132;28;20359;-62
2023/08/10 09:00:15;;;;;;;3.05;1.20;;;19.10;99.40;;;;;;5064544;28;20877;-64
2023/08/10 09:02:43;;;;;;;3.63;1.17;;;19.10;99.40;;;;;;5063194;28;20229;-63
2023/08/10 09:05:10;;;;;;;2.22;1.20;;;19.20;99.40;;;;;;5064985;28;20229;-63
2023/08/10 09:07:37;;;;;;;2.10;1.20;;;19.20;99.50;;;;;;5071896;28;20221;-63
2023/08/10 09:10:05;;;;;;;4.05;1.70;;;19.20;99.60;;;;;;5070380;28;20193;-64
2023/08/10 09:12:35;;;;;;;3.33;1.65;;;19.20;99.50;;;;;;5071924;28;20193;-63
2023/08/10 09:15:04;;;;;;;4.68;1.55;;;19.30;99.50;;;;;;5072409;28;20193;-63
2023/08/10 09:17:32;;;;;;;2.30;1.30;;;19.30;99.40;;;;;;5071024;28;20231;-63
2023/08/10 09:19:59;;;;;;;2.10;1.52;;;19.40;99.40;;;;;;5060864;28;20310;-63
2023/08/10 09:22:33;;;;;;;4.18;1.77;;;19.40;99.70;;;;;;5070925;28;20568;-63
2023/08/10 09:25:00;;;;;;;1.88;1.33;;;19.40;99.20;;;;;;5071131;28;20189;-63
2023/08/10 09:27:28;;;;;;;3.13;1.35;;;19.50;99.00;;;;;;5070862;28;20216;-62
2023/08/10 09:30:01;;;;;;;3.83;1.35;;;19.50;98.50;;;;;;5068955;28;20652;-63
2023/08/10 09:32:28;;;;;;;2.30;1.42;;;19.50;98.10;;;;;;5067330;28;20483;-63
2023/08/10 09:34:55;;;;;;;2.05;0.95;;;19.50;97.90;;;;;;5064469;28;20213;-63
2023/08/10 09:37:24;;;;;;;4.13;1.48;;;19.40;97.90;;;;;;5070714;28;20209;-63
2023/08/10 09:39:54;;;;;;;4.63;1.20;;;19.40;96.60;;;;;;5065984;28;20197;-64
2023/08/10 09:42:21;;;;;;;3.97;1.45;;;19.30;96.00;;;;;;5070547;28;20193;-63
2023/08/10 09:44:50;;;;;;;2.53;1.40;;;19.30;95.80;;;;;;5069178;28;20829;-64
2023/08/10 09:47:19;;;;;;;1.70;1.00;;;19.30;95.30;;;;;;5065500;28;20292;-64
2023/08/10 09:49:55;;;;;;;2.83;1.20;;;19.30;95.40;;;;;;5041778;28;20205;-64
2023/08/10 09:52:22;;;;;;;2.45;1.35;;;19.40;95.40;;;;;;5067516;28;20197;-63
2023/08/10 09:54:50;;;;;;;3.55;1.10;;;19.40;95.50;;;;;;5072420;28;20197;-64
2023/08/10 09:57:18;;;;;;;3.67;1.48;;;19.40;95.20;;;;;;5070924;28;20312;-63
2023/08/10 09:59:46;;;;;;;2.78;1.30;;;19.50;95.00;;;;;;5069450;28;20185;-64
2023/08/10 10:02:14;;;;;;;3.05;1.50;;;19.50;94.70;;;;;;5069734;28;20189;-64
2023/08/10 10:04:43;;;;;;;1.85;1.02;;;19.60;94.50;;;;;;5070006;28;20324;-65
2023/08/10 10:07:12;;;;;;;2.10;1.17;;;19.60;94.30;;;;;;5070756;28;20189;-62
2023/08/10 10:09:43;;;;;;;8.88;1.45;;;19.70;94.30;;;;;;5068405;28;20204;-64
2023/08/10 10:12:11;;;;;;;1.60;0.85;;;19.80;94.30;;;;;;5070883;28;20197;-64
2023/08/10 10:14:41;;;;;;;1.42;1.08;;;19.90;94.30;;;;;;5069045;28;20271;-64
2023/08/10 10:17:11;;;;;;;1.05;0.77;;;20.00;94.40;;;;;;5068735;28;20722;-64
2023/08/10 10:19:39;;;;;;;1.27;0.80;;;20.10;94.40;;;;;;5068488;28;20194;-64
2023/08/10 10:22:08;;;;;;;2.90;1.13;;;20.20;94.00;;;;;;5065460;28;20251;-64
2023/08/10 10:24:39;;;;;;;3.50;1.30;;;20.20;93.80;;;;;;5051616;28;20606;-64
2023/08/10 10:27:09;;;;;;;3.20;1.30;;;20.20;93.10;;;;;;5067561;28;20186;-63
2023/08/10 10:29:37;;;;;;;2.78;1.50;;;20.20;92.60;;;;;;5052511;28;20211;-63
2023/08/10 10:32:06;;;;;;;2.40;1.42;;;20.10;92.40;;;;;;5061256;28;20275;-64
2023/08/10 10:34:34;;;;;;;1.85;1.23;;;20.10;92.50;;;;;;5068472;28;20316;-63
2023/08/10 10:37:10;;;;;;;2.28;1.08;;;20.10;92.50;;;;;;5068444;28;20190;-63
2023/08/10 10:39:40;;;;;;;1.85;1.10;;;20.10;92.50;;;;;;5068344;28;20279;-64
2023/08/10 10:42:10;;;;;;;2.42;1.40;;;20.10;92.50;;;;;;5070623;28;20189;-64
2023/08/10 10:45:01;;;;;;;2.35;1.45;;;20.10;92.50;;;;;;5070031;28;20190;-64
2023/08/10 10:47:35;;;;;;;3.33;1.65;;;20.10;91.80;;;;;;5051253;28;20565;-63
2023/08/10 10:50:15;;;;;;;2.67;1.45;;;20.00;92.00;;;;;;5070792;28;20199;-64
2023/08/10 10:52:53;;;;;;;2.53;1.30;;;20.00;92.20;;;;;;5065839;28;20272;-63
2023/08/10 10:55:20;;;;;;;2.53;1.42;;;20.00;92.20;;;;;;5070024;28;20197;-63
2023/08/10 10:57:49;;;;;;;1.35;1.15;;;20.00;92.30;;;;;;5066426;28;20300;-63
2023/08/10 11:00:18;;;;;;;3.92;1.27;;;20.00;92.10;;;;;;5069667;28;20192;-63
2023/08/10 11:02:46;;;;;;;5.65;1.30;;;20.00;92.00;;;;;;5067028;28;20197;-63
2023/08/10 11:05:14;;;;;;;3.22;1.40;;;20.00;92.00;;;;;;5068545;28;20278;-63
2023/08/10 11:07:43;;;;;;;5.07;1.02;;;20.00;91.70;;;;;;5069313;28;20888;-64
2023/08/10 11:10:11;;;;;;;2.30;1.30;;;20.00;91.80;;;;;;5067244;28;20255;-64
2023/08/10 11:12:40;;;;;;;2.38;0.88;;;20.00;92.00;;;;;;5068563;28;20193;-63
2023/08/10 11:15:09;;;;;;;3.78;1.48;;;20.10;92.20;;;;;;5070393;28;20242;-63
2023/08/10 11:17:36;;;;;;;1.17;1.10;;;20.00;92.20;;;;;;5066923;28;20193;-64
2023/08/10 11:20:10;;;;;;;3.20;1.25;;;20.00;92.40;;;;;;5064883;28;20774;-63
2023/08/10 11:22:40;;;;;;;1.20;1.10;;;20.10;92.30;;;;;;5065245;28;20731;-64
2023/08/10 11:25:12;;;;;;;1.88;1.17;;;20.00;92.30;;;;;;5062338;28;20250;-63
2023/08/10 11:27:42;;;;;;;2.20;1.15;;;20.10;92.40;;;;;;5065777;28;20213;-64
2023/08/10 11:30:10;;;;;;;2.92;1.20;;;20.10;92.50;;;;;;5066565;28;20227;-63
2023/08/10 11:32:41;;;;;;;1.30;1.20;;;20.10;92.50;;;;;;5068670;28;20290;-65
2023/08/10 11:35:09;;;;;;;6.43;1.70;;;20.10;92.60;;;;;;5065903;28;20620;-64
2023/08/10 11:37:38;;;;;;;1.38;1.00;;;20.10;92.30;;;;;;5066532;28;20197;-63
2023/08/10 11:40:11;;;;;;;1.55;1.13;;;20.20;92.40;;;;;;5069511;28;20283;-63
2023/08/10 11:42:39;;;;;;;2.22;1.20;;;20.10;92.50;;;;;;5067194;28;20274;-63
2023/08/10 11:45:11;;;;;;;2.85;1.17;;;20.10;92.60;;;;;;5069030;28;20651;-63
2023/08/10 11:47:43;;;;;;;3.60;1.38;;;20.10;92.50;;;;;;5049233;28;20272;-64
2023/08/10 11:50:12;;;;;;;1.13;1.00;;;20.00;92.00;;;;;;5066588;28;20633;-64
2023/08/10 11:52:40;;;;;;;2.45;1.20;;;20.10;92.10;;;;;;5065303;28;20231;-64
2023/08/10 11:55:13;;;;;;;4.35;1.38;;;20.10;92.20;;;;;;5067359;28;20216;-63
2023/08/10 11:57:45;;;;;;;11.75;1.45;;;20.20;92.10;;;;;;5067998;28;20256;-63
2023/08/10 12:00:25;;;;;;;3.83;1.45;;;20.20;92.00;;;;;;5066673;28;20190;-65
2023/08/10 12:03:05;;;;;;;2.00;1.02;;;20.30;92.00;;;;;;5067533;28;20197;-63
2023/08/10 12:05:44;;;;;;;1.73;0.95;;;20.40;92.00;;;;;;5067582;28;20232;-64
2023/08/10 12:08:13;;;;;;;1.60;1.23;;;20.50;91.90;;;;;;5067627;28;20193;-64
2023/08/10 12:10:43;;;;;;;2.38;0.80;;;20.70;91.70;;;;;;5066660;28;20200;-63
2023/08/10 12:13:13;;;;;;;4.10;1.63;;;20.70;91.30;;;;;;5069362;28;20197;-63
2023/08/10 12:15:47;;;;;;;2.35;1.10;;;20.80;90.70;;;;;;5068015;28;20197;-63
2023/08/10 12:18:16;;;;;;;1.35;1.10;;;20.80;90.60;;;;;;5048395;28;20950;-64
2023/08/10 12:20:43;;;;;;;2.50;1.25;;;20.90;90.70;;;;;;5062405;28;20266;-64
2023/08/10 12:23:13;;;;;;;2.15;1.02;;;20.80;90.60;;;;;;5060836;28;20229;-64
2023/08/10 12:25:44;;;;;;;2.72;1.23;;;20.80;90.50;;;;;;5066824;28;20201;-64
2023/08/10 12:28:12;;;;;;;2.40;1.08;;;20.90;90.50;;;;;;5064618;28;20213;-63
2023/08/10 12:30:39;;;;;;;1.23;1.13;;;20.80;90.40;;;;;;5064590;28;20215;-63
2023/08/10 12:33:08;;;;;;;2.00;1.27;;;20.80;90.00;;;;;;5064836;28;20216;-63
2023/08/10 12:35:35;;;;;;;2.40;1.20;;;20.80;89.30;;;;;;5047579;28;20208;-63
2023/08/10 12:38:03;;;;;;;1.92;1.08;;;20.70;88.90;;;;;;5063529;28;20669;-63
2023/08/10 12:40:30;;;;;;;3.95;1.05;;;20.70;88.80;;;;;;5058444;28;20193;-63
2023/08/10 12:42:59;;;;;;;2.55;1.05;;;20.70;88.10;;;;;;5066185;28;20693;-65
2023/08/10 12:45:27;;;;;;;3.47;1.25;;;20.70;88.60;;;;;;5048482;28;20197;-64
2023/08/10 12:47:54;;;;;;;2.45;1.30;;;20.60;87.20;;;;;;5061331;28;20299;-63
2023/08/10 12:50:24;;;;;;;1.17;1.00;;;20.60;86.80;;;;;;5064245;28;20224;-63
2023/08/10 12:52:51;;;;;;;1.05;0.90;;;20.60;86.30;;;;;;5067891;28;20277;-64
2023/08/10 12:55:18;;;;;;;1.88;1.25;;;20.60;86.50;;;;;;5072726;28;20270;-63